sensor_id;sensor_type;location;lat;lon;timestamp;pressure;altitude;pressure_sealevel;temperature;humidity
78909;BME280;68298;37.368;127.108;2023-04-03T00:00:17;101299.00;;;20.25;33.40
78909;BME280;68298;37.368;127.108;2023-04-03T00:02:48;101303.22;;;20.28;32.63
78909;BME280;68298;37.368;127.108;2023-04-03T00:05:19;101303.94;;;20.30;32.91
78909;BME280;68298;37.368;127.108;2023-04-03T00:07:50;101299.63;;;20.29;33.52
78909;BME280;68298;37.368;127.108;2023-04-03T00:10:22;101297.53;;;20.34;33.79
78909;BME280;68298;37.368;127.108;2023-04-03T00:12:52;101293.88;;;20.36;33.31
78909;BME280;68298;37.368;127.108;2023-04-03T00:15:23;101294.47;;;20.40;33.45
78909;BME280;68298;37.368;127.108;2023-04-03T00:17:53;101306.06;;;20.37;33.79
78909;BME280;68298;37.368;127.108;2023-04-03T00:20:24;101307.88;;;20.37;34.11
78909;BME280;68298;37.368;127.108;2023-04-03T00:22:55;101305.22;;;20.37;33.33
78909;BME280;68298;37.368;127.108;2023-04-03T00:25:26;101304.47;;;20.35;32.99
78909;BME280;68298;37.368;127.108;2023-04-03T00:27:57;101295.00;;;20.32;33.42
78909;BME280;68298;37.368;127.108;2023-04-03T00:30:27;101295.00;;;20.32;33.24
78909;BME280;68298;37.368;127.108;2023-04-03T00:32:58;101297.66;;;20.32;32.98
78909;BME280;68298;37.368;127.108;2023-04-03T00:35:29;101291.53;;;20.32;32.86
78909;BME280;68298;37.368;127.108;2023-04-03T00:38:00;101295.00;;;20.32;31.95
78909;BME280;68298;37.368;127.108;2023-04-03T00:40:35;101296.88;;;20.30;31.85
78909;BME280;68298;37.368;127.108;2023-04-03T00:43:13;101296.69;;;20.33;31.50
78909;BME280;68298;37.368;127.108;2023-04-03T00:45:50;101285.22;;;20.34;32.02
78909;BME280;68298;37.368;127.108;2023-04-03T00:48:50;101288.69;;;20.35;31.22
78909;BME280;68298;37.368;127.108;2023-04-03T00:51:24;101287.72;;;20.36;31.24
78909;BME280;68298;37.368;127.108;2023-04-03T00:53:58;101287.13;;;20.32;31.36
78909;BME280;68298;37.368;127.108;2023-04-03T00:56:31;101280.38;;;20.28;31.27
78909;BME280;68298;37.368;127.108;2023-04-03T00:59:16;101284.69;;;20.29;30.68
78909;BME280;68298;37.368;127.108;2023-04-03T01:01:54;101276.91;;;20.28;29.53
78909;BME280;68298;37.368;127.108;2023-04-03T01:04:37;101286.28;;;20.32;31.06
78909;BME280;68298;37.368;127.108;2023-04-03T01:07:10;101273.22;;;20.30;30.79
78909;BME280;68298;37.368;127.108;2023-04-03T01:09:42;101274.28;;;20.28;30.07
78909;BME280;68298;37.368;127.108;2023-04-03T01:12:24;101280.25;;;20.30;30.34
78909;BME280;68298;37.368;127.108;2023-04-03T01:14:58;101279.41;;;20.29;29.87
78909;BME280;68298;37.368;127.108;2023-04-03T01:17:41;101285.53;;;20.30;29.74
78909;BME280;68298;37.368;127.108;2023-04-03T01:25:50;101295.84;;;20.33;29.46
78909;BME280;68298;37.368;127.108;2023-04-03T01:28:28;101296.88;;;20.30;30.40
78909;BME280;68298;37.368;127.108;2023-04-03T01:33:49;101283.66;;;20.32;29.84
78909;BME280;68298;37.368;127.108;2023-04-03T01:36:23;101290.59;;;20.33;29.16
78909;BME280;68298;37.368;127.108;2023-04-03T01:38:55;101281.63;;;20.35;29.64
78909;BME280;68298;37.368;127.108;2023-04-03T01:41:26;101281.44;;;20.38;29.33
78909;BME280;68298;37.368;127.108;2023-04-03T01:44:04;101285.03;;;20.37;29.61
78909;BME280;68298;37.368;127.108;2023-04-03T01:46:35;101277.13;;;20.37;29.49
78909;BME280;68298;37.368;127.108;2023-04-03T01:49:07;101269.97;;;20.39;29.43
78909;BME280;68298;37.368;127.108;2023-04-03T01:51:37;101258.47;;;20.40;30.04
78909;BME280;68298;37.368;127.108;2023-04-03T01:54:08;101264.56;;;20.41;29.45
78909;BME280;68298;37.368;127.108;2023-04-03T01:56:39;101261.09;;;20.40;28.82
78909;BME280;68298;37.368;127.108;2023-04-03T01:59:11;101249.66;;;20.41;29.46
78909;BME280;68298;37.368;127.108;2023-04-03T02:01:41;101248.72;;;20.42;29.20
78909;BME280;68298;37.368;127.108;2023-04-03T02:04:13;101242.59;;;20.42;28.89
78909;BME280;68298;37.368;127.108;2023-04-03T02:06:44;101246.06;;;20.42;28.75
78909;BME280;68298;37.368;127.108;2023-04-03T02:09:16;101236.19;;;20.46;28.37
78909;BME280;68298;37.368;127.108;2023-04-03T02:11:46;101243.22;;;20.45;28.91
78909;BME280;68298;37.368;127.108;2023-04-03T02:14:20;101247.47;;;20.48;28.50
78909;BME280;68298;37.368;127.108;2023-04-03T02:16:53;101245.78;;;20.47;28.70
78909;BME280;68298;37.368;127.108;2023-04-03T02:19:23;101244.91;;;20.46;28.52
78909;BME280;68298;37.368;127.108;2023-04-03T02:21:54;101241.38;;;20.47;28.58
78909;BME280;68298;37.368;127.108;2023-04-03T02:24:24;101241.25;;;20.49;28.91
78909;BME280;68298;37.368;127.108;2023-04-03T02:26:56;101239.56;;;20.48;28.05
78909;BME280;68298;37.368;127.108;2023-04-03T02:29:26;101242.94;;;20.50;28.59
78909;BME280;68298;37.368;127.108;2023-04-03T02:31:57;101242.94;;;20.50;28.36
78909;BME280;68298;37.368;127.108;2023-04-03T02:34:29;101242.09;;;20.49;28.55
78909;BME280;68298;37.368;127.108;2023-04-03T02:37:01;101235.78;;;20.52;28.36
78909;BME280;68298;37.368;127.108;2023-04-03T02:39:32;101226.94;;;20.53;27.94
78909;BME280;68298;37.368;127.108;2023-04-03T02:42:02;101227.06;;;20.52;27.77
78909;BME280;68298;37.368;127.108;2023-04-03T02:44:34;101226.94;;;20.53;28.08
78909;BME280;68298;37.368;127.108;2023-04-03T02:47:05;101233.03;;;20.54;28.30
78909;BME280;68298;37.368;127.108;2023-04-03T02:49:36;101233.88;;;20.54;28.22
78909;BME280;68298;37.368;127.108;2023-04-03T02:52:07;101225.03;;;20.55;28.27
78909;BME280;68298;37.368;127.108;2023-04-03T02:54:37;101219.69;;;20.57;27.40
78909;BME280;68298;37.368;127.108;2023-04-03T02:57:10;101212.63;;;20.57;27.62
78909;BME280;68298;37.368;127.108;2023-04-03T02:59:41;101204.72;;;20.57;28.07
78909;BME280;68298;37.368;127.108;2023-04-03T03:02:12;101208.19;;;20.58;27.76
78909;BME280;68298;37.368;127.108;2023-04-03T03:04:42;101205.44;;;20.59;28.00
78909;BME280;68298;37.368;127.108;2023-04-03T03:07:13;101211.66;;;20.58;27.92
78909;BME280;68298;37.368;127.108;2023-04-03T03:09:44;101205.56;;;20.58;28.11
78909;BME280;68298;37.368;127.108;2023-04-03T03:12:14;101202.72;;;20.61;28.04
78909;BME280;68298;37.368;127.108;2023-04-03T03:14:45;101205.03;;;20.65;27.28
78909;BME280;68298;37.368;127.108;2023-04-03T03:17:17;101194.41;;;20.67;27.59
78909;BME280;68298;37.368;127.108;2023-04-03T03:19:47;101193.56;;;20.66;28.38
78909;BME280;68298;37.368;127.108;2023-04-03T03:22:19;101198.91;;;20.65;29.95
78909;BME280;68298;37.368;127.108;2023-04-03T03:24:49;101200.69;;;20.64;31.34
78909;BME280;68298;37.368;127.108;2023-04-03T03:27:20;101191.25;;;20.62;31.93
78909;BME280;68298;37.368;127.108;2023-04-03T03:29:51;101187.44;;;20.66;31.21
78909;BME280;68298;37.368;127.108;2023-04-03T03:32:22;101191.00;;;20.65;31.53
78909;BME280;68298;37.368;127.108;2023-04-03T03:34:52;101193.56;;;20.66;31.53
78909;BME280;68298;37.368;127.108;2023-04-03T03:37:23;101197.16;;;20.65;31.84
78909;BME280;68298;37.368;127.108;2023-04-03T03:39:54;101185.75;;;20.65;31.60
78909;BME280;68298;37.368;127.108;2023-04-03T03:42:25;101176.91;;;20.66;32.61
78909;BME280;68298;37.368;127.108;2023-04-03T03:44:55;101158.38;;;20.67;32.56
78909;BME280;68298;37.368;127.108;2023-04-03T03:47:26;101161.72;;;20.69;32.30
78909;BME280;68298;37.368;127.108;2023-04-03T03:49:57;101155.75;;;20.67;32.16
78909;BME280;68298;37.368;127.108;2023-04-03T03:52:29;101156.56;;;20.68;32.76
78909;BME280;68298;37.368;127.108;2023-04-03T03:54:59;101153.75;;;20.71;31.91
78909;BME280;68298;37.368;127.108;2023-04-03T03:57:30;101150.03;;;20.73;31.66
78909;BME280;68298;37.368;127.108;2023-04-03T04:00:02;101144.88;;;20.72;32.14
78909;BME280;68298;37.368;127.108;2023-04-03T04:02:42;101139.50;;;20.73;31.98
78909;BME280;68298;37.368;127.108;2023-04-03T04:05:17;101135.94;;;20.74;32.33
78909;BME280;68298;37.368;127.108;2023-04-03T04:07:48;101126.84;;;20.79;32.30
78909;BME280;68298;37.368;127.108;2023-04-03T04:10:19;101119.06;;;20.77;31.00
78909;BME280;68298;37.368;127.108;2023-04-03T04:12:50;101120.84;;;20.77;32.71
78909;BME280;68298;37.368;127.108;2023-04-03T04:15:23;101118.94;;;20.79;32.43
78909;BME280;68298;37.368;127.108;2023-04-03T04:17:56;101114.63;;;20.78;32.53
78909;BME280;68298;37.368;127.108;2023-04-03T04:20:27;101113.25;;;20.85;31.28
78909;BME280;68298;37.368;127.108;2023-04-03T04:22:57;101102.22;;;20.80;32.56
78909;BME280;68298;37.368;127.108;2023-04-03T04:25:29;101090.47;;;20.84;32.38
78909;BME280;68298;37.368;127.108;2023-04-03T04:28:00;101092.19;;;20.85;32.56
78909;BME280;68298;37.368;127.108;2023-04-03T04:30:31;101086.91;;;20.85;32.46
78909;BME280;68298;37.368;127.108;2023-04-03T04:33:03;101080.56;;;20.87;32.71
78909;BME280;68298;37.368;127.108;2023-04-03T04:35:35;101071.72;;;20.88;31.08
78909;BME280;68298;37.368;127.108;2023-04-03T04:38:07;101065.59;;;20.88;31.23
78909;BME280;68298;37.368;127.108;2023-04-03T04:40:38;101068.16;;;20.89;32.07
78909;BME280;68298;37.368;127.108;2023-04-03T04:43:10;101069.94;;;20.89;31.80
78909;BME280;68298;37.368;127.108;2023-04-03T04:45:46;101059.50;;;20.87;31.81
78909;BME280;68298;37.368;127.108;2023-04-03T04:48:19;101047.09;;;20.89;30.99
78909;BME280;68298;37.368;127.108;2023-04-03T04:50:50;101044.53;;;20.88;25.93
78909;BME280;68298;37.368;127.108;2023-04-03T04:53:21;101032.53;;;20.84;23.89
78909;BME280;68298;37.368;127.108;2023-04-03T04:55:52;101030.44;;;20.89;24.35
78909;BME280;68298;37.368;127.108;2023-04-03T04:58:23;101027.91;;;20.87;21.99
78909;BME280;68298;37.368;127.108;2023-04-03T05:01:06;101025.41;;;20.86;22.04
78909;BME280;68298;37.368;127.108;2023-04-03T05:03:43;101014.66;;;20.89;20.67
78909;BME280;68298;37.368;127.108;2023-04-03T05:06:15;101013.78;;;20.88;21.89
78909;BME280;68298;37.368;127.108;2023-04-03T05:08:46;101010.31;;;20.88;21.03
78909;BME280;68298;37.368;127.108;2023-04-03T05:11:17;101005.88;;;20.88;20.69
78909;BME280;68298;37.368;127.108;2023-04-03T05:13:50;100993.78;;;20.86;19.70
78909;BME280;68298;37.368;127.108;2023-04-03T05:16:23;101005.78;;;20.90;20.10
78909;BME280;68298;37.368;127.108;2023-04-03T05:18:54;101004.94;;;20.89;20.41
78909;BME280;68298;37.368;127.108;2023-04-03T05:21:24;100997.03;;;20.89;19.80
78909;BME280;68298;37.368;127.108;2023-04-03T05:23:58;100998.59;;;20.92;19.73
78909;BME280;68298;37.368;127.108;2023-04-03T05:26:32;100990.81;;;20.90;19.30
78909;BME280;68298;37.368;127.108;2023-04-03T05:29:02;100986.25;;;20.92;19.20
78909;BME280;68298;37.368;127.108;2023-04-03T05:31:34;100985.22;;;20.95;19.40
78909;BME280;68298;37.368;127.108;2023-04-03T05:34:07;100977.31;;;20.95;19.40
78909;BME280;68298;37.368;127.108;2023-04-03T05:36:40;100977.94;;;20.98;18.82
78909;BME280;68298;37.368;127.108;2023-04-03T05:39:13;100965.47;;;21.00;18.94
78909;BME280;68298;37.368;127.108;2023-04-03T05:41:46;100969.66;;;21.03;18.59
78909;BME280;68298;37.368;127.108;2023-04-03T05:44:17;100966.19;;;21.02;18.77
78909;BME280;68298;37.368;127.108;2023-04-03T05:46:49;100966.66;;;21.08;18.24
78909;BME280;68298;37.368;127.108;2023-04-03T05:49:20;100952.78;;;21.06;19.01
78909;BME280;68298;37.368;127.108;2023-04-03T05:51:51;100957.34;;;21.04;18.53
78909;BME280;68298;37.368;127.108;2023-04-03T05:54:29;100952.91;;;21.04;19.25
78909;BME280;68298;37.368;127.108;2023-04-03T05:57:10;100955.28;;;21.07;18.67
78909;BME280;68298;37.368;127.108;2023-04-03T05:59:43;100947.88;;;21.12;19.38
78909;BME280;68298;37.368;127.108;2023-04-03T06:02:20;100948.75;;;21.13;19.94
78909;BME280;68298;37.368;127.108;2023-04-03T06:04:52;100951.81;;;21.07;19.51
78909;BME280;68298;37.368;127.108;2023-04-03T06:07:24;100951.00;;;21.06;19.33
78909;BME280;68298;37.368;127.108;2023-04-03T06:09:58;100940.59;;;21.05;19.89
78909;BME280;68298;37.368;127.108;2023-04-03T06:12:29;100940.44;;;21.06;19.72
78909;BME280;68298;37.368;127.108;2023-04-03T06:15:00;100933.38;;;21.07;19.03
78909;BME280;68298;37.368;127.108;2023-04-03T06:17:30;100926.31;;;21.07;20.02
78909;BME280;68298;37.368;127.108;2023-04-03T06:20:02;100929.78;;;21.08;19.69
78909;BME280;68298;37.368;127.108;2023-04-03T06:22:33;100912.31;;;21.07;19.99
78909;BME280;68298;37.368;127.108;2023-04-03T06:25:04;100917.50;;;21.08;19.29
78909;BME280;68298;37.368;127.108;2023-04-03T06:27:36;100913.88;;;21.09;19.64
78909;BME280;68298;37.368;127.108;2023-04-03T06:30:07;100906.94;;;21.08;19.99
78909;BME280;68298;37.368;127.108;2023-04-03T06:32:38;100905.16;;;21.09;18.78
78909;BME280;68298;37.368;127.108;2023-04-03T06:35:09;100905.25;;;21.07;19.53
78909;BME280;68298;37.368;127.108;2023-04-03T06:37:40;100899.97;;;21.07;19.30
78909;BME280;68298;37.368;127.108;2023-04-03T06:40:21;100904.31;;;21.08;19.75
78909;BME280;68298;37.368;127.108;2023-04-03T06:42:52;100900.72;;;21.09;19.31
78909;BME280;68298;37.368;127.108;2023-04-03T06:45:22;100906.00;;;21.09;19.16
78909;BME280;68298;37.368;127.108;2023-04-03T06:47:56;100907.53;;;21.12;19.69
78909;BME280;68298;37.368;127.108;2023-04-03T06:50:26;100915.56;;;21.10;18.93
78909;BME280;68298;37.368;127.108;2023-04-03T06:52:57;100906.81;;;21.10;19.25
78909;BME280;68298;37.368;127.108;2023-04-03T06:55:27;100901.44;;;21.11;18.69
78909;BME280;68298;37.368;127.108;2023-04-03T06:57:58;100907.66;;;21.10;18.78
78909;BME280;68298;37.368;127.108;2023-04-03T07:00:29;100910.16;;;21.12;18.83
78909;BME280;68298;37.368;127.108;2023-04-03T07:03:00;100906.69;;;21.11;19.06
78909;BME280;68298;37.368;127.108;2023-04-03T07:05:31;100908.38;;;21.12;18.93
78909;BME280;68298;37.368;127.108;2023-04-03T07:08:01;100903.00;;;21.14;19.45
78909;BME280;68298;37.368;127.108;2023-04-03T07:10:32;100912.69;;;21.13;19.68
78909;BME280;68298;37.368;127.108;2023-04-03T07:13:02;100909.94;;;21.15;19.22
78909;BME280;68298;37.368;127.108;2023-04-03T07:15:48;100912.56;;;21.15;19.13
78909;BME280;68298;37.368;127.108;2023-04-03T07:18:28;100905.50;;;21.15;19.09
78909;BME280;68298;37.368;127.108;2023-04-03T07:20:59;100902.88;;;21.15;19.28
78909;BME280;68298;37.368;127.108;2023-04-03T07:23:33;100911.47;;;21.17;19.37
78909;BME280;68298;37.368;127.108;2023-04-03T07:26:07;100909.38;;;21.22;18.18
78909;BME280;68298;37.368;127.108;2023-04-03T07:28:39;100912.00;;;21.22;18.62
78909;BME280;68298;37.368;127.108;2023-04-03T07:31:12;100911.88;;;21.24;19.09
78909;BME280;68298;37.368;127.108;2023-04-03T07:33:47;100927.31;;;21.29;19.02
78909;BME280;68298;37.368;127.108;2023-04-03T07:36:20;100925.34;;;21.32;18.59
78909;BME280;68298;37.368;127.108;2023-04-03T07:38:54;100919.94;;;21.34;19.20
78909;BME280;68298;37.368;127.108;2023-04-03T07:41:26;100929.66;;;21.33;19.06
78909;BME280;68298;37.368;127.108;2023-04-03T07:43:57;100933.81;;;21.36;19.05
78909;BME280;68298;37.368;127.108;2023-04-03T07:46:30;100928.56;;;21.36;19.12
78909;BME280;68298;37.368;127.108;2023-04-03T07:49:02;100933.81;;;21.36;18.76
78909;BME280;68298;37.368;127.108;2023-04-03T07:51:33;100947.75;;;21.38;19.04
78909;BME280;68298;37.368;127.108;2023-04-03T07:54:04;100940.53;;;21.40;19.37
78909;BME280;68298;37.368;127.108;2023-04-03T07:56:34;100941.38;;;21.40;19.30
78909;BME280;68298;37.368;127.108;2023-04-03T07:59:07;100935.28;;;21.40;19.28
78909;BME280;68298;37.368;127.108;2023-04-03T08:01:41;100938.88;;;21.39;19.37
78909;BME280;68298;37.368;127.108;2023-04-03T08:04:12;100939.00;;;21.37;18.72
78909;BME280;68298;37.368;127.108;2023-04-03T08:06:42;100934.78;;;21.35;19.30
78909;BME280;68298;37.368;127.108;2023-04-03T08:09:15;100933.25;;;21.32;19.01
78909;BME280;68298;37.368;127.108;2023-04-03T08:11:45;100937.75;;;21.30;18.90
78909;BME280;68298;37.368;127.108;2023-04-03T08:14:16;100930.94;;;21.27;19.21
78909;BME280;68298;37.368;127.108;2023-04-03T08:16:48;100938.94;;;21.26;19.51
78909;BME280;68298;37.368;127.108;2023-04-03T08:19:20;100932.81;;;21.25;19.20
78909;BME280;68298;37.368;127.108;2023-04-03T08:21:57;100933.91;;;21.23;18.81
78909;BME280;68298;37.368;127.108;2023-04-03T08:24:28;100933.19;;;21.21;19.28
78909;BME280;68298;37.368;127.108;2023-04-03T08:26:59;100927.81;;;21.22;18.89
78909;BME280;68298;37.368;127.108;2023-04-03T08:29:30;100932.47;;;21.19;19.07
78909;BME280;68298;37.368;127.108;2023-04-03T08:32:01;100922.75;;;21.19;19.29
78909;BME280;68298;37.368;127.108;2023-04-03T08:34:32;100930.78;;;21.18;19.67
78909;BME280;68298;37.368;127.108;2023-04-03T08:37:06;100930.88;;;21.16;19.08
78909;BME280;68298;37.368;127.108;2023-04-03T08:39:37;100932.81;;;21.14;19.67
78909;BME280;68298;37.368;127.108;2023-04-03T08:45:12;100930.19;;;21.14;19.73
78909;BME280;68298;37.368;127.108;2023-04-03T08:47:55;100936.50;;;21.12;19.71
78909;BME280;68298;37.368;127.108;2023-04-03T08:59:37;100937.59;;;21.09;19.69
78909;BME280;68298;37.368;127.108;2023-04-03T09:05:18;100944.88;;;21.06;20.45
78909;BME280;68298;37.368;127.108;2023-04-03T09:08:12;100940.59;;;21.05;19.96
78909;BME280;68298;37.368;127.108;2023-04-03T09:10:45;100939.63;;;21.06;19.69
78909;BME280;68298;37.368;127.108;2023-04-03T09:15:56;100953.00;;;21.02;20.57
78909;BME280;68298;37.368;127.108;2023-04-03T09:18:35;100951.34;;;21.01;20.24
78909;BME280;68298;37.368;127.108;2023-04-03T09:21:34;100956.59;;;21.01;20.58
78909;BME280;68298;37.368;127.108;2023-04-03T09:24:07;100954.94;;;21.00;20.50
78909;BME280;68298;37.368;127.108;2023-04-03T09:27:10;100951.59;;;20.98;21.13
78909;BME280;68298;37.368;127.108;2023-04-03T09:29:43;100957.78;;;20.97;21.14
78909;BME280;68298;37.368;127.108;2023-04-03T09:32:33;100962.00;;;21.00;20.57
78909;BME280;68298;37.368;127.108;2023-04-03T09:35:18;100959.59;;;20.97;21.52
78909;BME280;68298;37.368;127.108;2023-04-03T09:41:02;100957.41;;;20.91;21.52
78909;BME280;68298;37.368;127.108;2023-04-03T09:43:35;100963.53;;;20.91;22.24
78909;BME280;68298;37.368;127.108;2023-04-03T09:46:28;100962.81;;;20.89;22.34
78909;BME280;68298;37.368;127.108;2023-04-03T09:49:04;100966.50;;;20.87;22.29
78909;BME280;68298;37.368;127.108;2023-04-03T09:51:38;100962.19;;;20.86;22.56
78909;BME280;68298;37.368;127.108;2023-04-03T09:54:37;100973.69;;;20.85;22.66
78909;BME280;68298;37.368;127.108;2023-04-03T09:57:12;100979.03;;;20.83;21.97
78909;BME280;68298;37.368;127.108;2023-04-03T10:00:00;100971.28;;;20.82;22.51
78909;BME280;68298;37.368;127.108;2023-04-03T10:02:39;100980.97;;;20.81;22.23
78909;BME280;68298;37.368;127.108;2023-04-03T10:05:38;100980.13;;;20.81;22.90
78909;BME280;68298;37.368;127.108;2023-04-03T10:10:47;100991.72;;;20.78;22.22
78909;BME280;68298;37.368;127.108;2023-04-03T10:13:20;100984.78;;;20.77;22.77
78909;BME280;68298;37.368;127.108;2023-04-03T10:16:06;100987.53;;;20.75;22.84
78909;BME280;68298;37.368;127.108;2023-04-03T10:18:56;100996.47;;;20.73;22.99
78909;BME280;68298;37.368;127.108;2023-04-03T10:21:48;100992.28;;;20.70;22.29
78909;BME280;68298;37.368;127.108;2023-04-03T10:26:57;100998.28;;;20.72;22.74
78909;BME280;68298;37.368;127.108;2023-04-03T10:29:54;101006.31;;;20.71;22.12
78909;BME280;68298;37.368;127.108;2023-04-03T10:38:08;101006.38;;;20.69;22.35
78909;BME280;68298;37.368;127.108;2023-04-03T10:46:53;101025.16;;;20.65;22.81
78909;BME280;68298;37.368;127.108;2023-04-03T10:52:17;101033.41;;;20.60;22.30
78909;BME280;68298;37.368;127.108;2023-04-03T10:57:34;101038.22;;;20.66;22.90
78909;BME280;68298;37.368;127.108;2023-04-03T11:00:09;101039.06;;;20.67;22.61
78909;BME280;68298;37.368;127.108;2023-04-03T11:02:59;101039.19;;;20.65;22.86
78909;BME280;68298;37.368;127.108;2023-04-03T11:05:40;101047.91;;;20.66;22.87
78909;BME280;68298;37.368;127.108;2023-04-03T11:11:20;101041.69;;;20.67;22.25
78909;BME280;68298;37.368;127.108;2023-04-03T11:13:53;101039.19;;;20.65;22.14
78909;BME280;68298;37.368;127.108;2023-04-03T11:16:26;101047.91;;;20.66;22.32
78909;BME280;68298;37.368;127.108;2023-04-03T11:24:55;101055.91;;;20.64;22.79
78909;BME280;68298;37.368;127.108;2023-04-03T11:27:35;101063.81;;;20.64;22.56
78909;BME280;68298;37.368;127.108;2023-04-03T11:30:18;101063.81;;;20.64;22.53
78909;BME280;68298;37.368;127.108;2023-04-03T11:35:33;101070.16;;;20.62;22.55
78909;BME280;68298;37.368;127.108;2023-04-03T11:38:06;101063.09;;;20.62;21.96
78909;BME280;68298;37.368;127.108;2023-04-03T11:40:38;101065.72;;;20.62;22.89
78909;BME280;68298;37.368;127.108;2023-04-03T11:46:00;101063.22;;;20.61;22.33
78909;BME280;68298;37.368;127.108;2023-04-03T11:53:46;101063.28;;;20.59;22.76
78909;BME280;68298;37.368;127.108;2023-04-03T11:56:27;101065.09;;;20.59;22.39
78909;BME280;68298;37.368;127.108;2023-04-03T12:01:45;101058.28;;;20.56;22.70
78909;BME280;68298;37.368;127.108;2023-04-03T12:04:19;101061.75;;;20.57;22.72
78909;BME280;68298;37.368;127.108;2023-04-03T12:06:58;101067.84;;;20.57;22.32
78909;BME280;68298;37.368;127.108;2023-04-03T12:09:34;101063.53;;;20.56;22.59
78909;BME280;68298;37.368;127.108;2023-04-03T12:12:39;101079.41;;;20.55;22.15
78909;BME280;68298;37.368;127.108;2023-04-03T12:15:48;101077.75;;;20.54;22.09
78909;BME280;68298;37.368;127.108;2023-04-03T12:18:53;101083.13;;;20.52;22.00
78909;BME280;68298;37.368;127.108;2023-04-03T12:24:31;101080.63;;;20.51;22.12
78909;BME280;68298;37.368;127.108;2023-04-03T12:32:56;101084.16;;;20.49;22.75
78909;BME280;68298;37.368;127.108;2023-04-03T12:44:48;101088.72;;;20.47;22.47
78909;BME280;68298;37.368;127.108;2023-04-03T12:47:31;101088.72;;;20.47;22.60
78909;BME280;68298;37.368;127.108;2023-04-03T12:50:23;101095.78;;;20.47;22.32
78909;BME280;68298;37.368;127.108;2023-04-03T12:52:59;101099.41;;;20.44;22.06
78909;BME280;68298;37.368;127.108;2023-04-03T12:55:31;101097.63;;;20.45;22.44
78909;BME280;68298;37.368;127.108;2023-04-03T12:58:26;101099.34;;;20.46;22.60
78909;BME280;68298;37.368;127.108;2023-04-03T13:03:31;101097.75;;;20.43;22.29
78909;BME280;68298;37.368;127.108;2023-04-03T13:06:02;101101.31;;;20.42;22.58
78909;BME280;68298;37.368;127.108;2023-04-03T13:08:34;101110.06;;;20.43;22.83
78909;BME280;68298;37.368;127.108;2023-04-03T13:11:09;101112.81;;;20.41;23.13
78909;BME280;68298;37.368;127.108;2023-04-03T13:14:00;101118.16;;;20.40;23.04
78909;BME280;68298;37.368;127.108;2023-04-03T13:16:33;101121.63;;;20.40;22.54
78909;BME280;68298;37.368;127.108;2023-04-03T13:19:04;101119.94;;;20.39;22.75
78909;BME280;68298;37.368;127.108;2023-04-03T13:21:35;101126.91;;;20.40;23.00
78909;BME280;68298;37.368;127.108;2023-04-03T13:24:06;101121.75;;;20.39;22.37
78909;BME280;68298;37.368;127.108;2023-04-03T13:26:43;101121.75;;;20.39;22.96
78909;BME280;68298;37.368;127.108;2023-04-03T13:29:33;101123.53;;;20.38;22.60
78909;BME280;68298;37.368;127.108;2023-04-03T13:32:05;101119.22;;;20.37;22.96
78909;BME280;68298;37.368;127.108;2023-04-03T13:34:42;101127.22;;;20.36;22.44
78909;BME280;68298;37.368;127.108;2023-04-03T13:37:28;101121.94;;;20.36;22.67
78909;BME280;68298;37.368;127.108;2023-04-03T13:42:37;101121.94;;;20.36;21.83
78909;BME280;68298;37.368;127.108;2023-04-03T13:47:51;101119.31;;;20.36;22.50
78909;BME280;68298;37.368;127.108;2023-04-03T13:50:25;101123.75;;;20.35;22.65
78909;BME280;68298;37.368;127.108;2023-04-03T13:53:24;101125.53;;;20.35;22.89
78909;BME280;68298;37.368;127.108;2023-04-03T13:58:36;101120.38;;;20.33;22.39
78909;BME280;68298;37.368;127.108;2023-04-03T14:01:18;101119.63;;;20.31;23.00
78909;BME280;68298;37.368;127.108;2023-04-03T14:03:57;101109.13;;;20.31;22.89
78909;BME280;68298;37.368;127.108;2023-04-03T14:06:29;101109.97;;;20.32;22.66
78909;BME280;68298;37.368;127.108;2023-04-03T14:09:00;101117.13;;;20.30;22.87
78909;BME280;68298;37.368;127.108;2023-04-03T14:11:31;101111.88;;;20.30;22.99
78909;BME280;68298;37.368;127.108;2023-04-03T14:14:21;101107.56;;;20.29;22.81
78909;BME280;68298;37.368;127.108;2023-04-03T14:16:57;101111.16;;;20.28;22.57
78909;BME280;68298;37.368;127.108;2023-04-03T14:19:34;101118.19;;;20.27;22.46
78909;BME280;68298;37.368;127.108;2023-04-03T14:24:51;101115.44;;;20.29;22.56
78909;BME280;68298;37.368;127.108;2023-04-03T14:27:25;101106.84;;;20.27;22.46
78909;BME280;68298;37.368;127.108;2023-04-03T14:29:58;101113.84;;;20.26;22.85
78909;BME280;68298;37.368;127.108;2023-04-03T14:32:29;101110.38;;;20.25;22.70
78909;BME280;68298;37.368;127.108;2023-04-03T14:35:00;101105.13;;;20.25;22.27
78909;BME280;68298;37.368;127.108;2023-04-03T14:37:31;101100.81;;;20.24;22.20
78909;BME280;68298;37.368;127.108;2023-04-03T14:40:03;101102.63;;;20.24;22.51
78909;BME280;68298;37.368;127.108;2023-04-03T14:42:37;101102.63;;;20.24;22.95
78909;BME280;68298;37.368;127.108;2023-04-03T14:45:12;101103.66;;;20.21;22.87
78909;BME280;68298;37.368;127.108;2023-04-03T14:47:46;101094.94;;;20.21;22.50
78909;BME280;68298;37.368;127.108;2023-04-03T14:50:21;101091.44;;;20.20;22.76
78909;BME280;68298;37.368;127.108;2023-04-03T14:52:55;101097.56;;;20.21;22.56